Time;durP1;ratioP1;P1;durP2;ratioP2;P2;SDS_P1;SDS_P2;PMS_P1;PMS_P2;Temp;Humidity;BMP_temperature;BMP_pressure;BME280_temperature;BME280_humidity;BME280_pressure;Samples;Min_cycle;Max_cycle;Signal;HPM_P1;HPM_P2
2021/11/21 00:01:36;;;;;;;44.07;24.20;;;;;7.80;101093.00;;;;10507257;28;20197;-78
2021/11/21 00:06:38;;;;;;;51.93;25.80;;;;;7.80;101083.00;;;;10457193;28;20263;-77
2021/11/21 00:11:40;;;;;;;49.83;26.13;;;;;7.70;101096.00;;;;10510700;28;20192;-77
2021/11/21 00:16:42;;;;;;;42.83;23.57;;;;;7.70;101089.00;;;;10518085;28;20242;-77
2021/11/21 00:21:44;;;;;;;41.60;21.53;;;;;7.70;101084.00;;;;10535080;28;20656;-77
2021/11/21 00:26:46;;;;;;;42.77;22.30;;;;;7.70;101080.00;;;;10517696;28;20219;-77
2021/11/21 00:31:48;;;;;;;44.07;22.90;;;;;7.60;101078.00;;;;10490769;28;20220;-77
2021/11/21 00:36:50;;;;;;;43.40;24.17;;;;;7.60;101077.00;;;;10534975;28;20200;-78
2021/11/21 00:41:53;;;;;;;46.57;24.53;;;;;7.60;101066.00;;;;10512143;28;20197;-78
2021/11/21 00:46:55;;;;;;;42.20;22.80;;;;;7.60;101054.00;;;;10495137;28;20296;-78
2021/11/21 00:51:58;;;;;;;40.67;22.50;;;;;7.60;101055.00;;;;10509453;28;20225;-78
2021/11/21 00:57:01;;;;;;;36.70;20.17;;;;;7.60;101056.00;;;;10495464;28;20639;-78
2021/11/21 01:02:08;;;;;;;37.97;20.33;;;;;7.50;101056.00;;;;10487777;28;20197;-77
2021/11/21 01:07:11;;;;;;;33.00;19.07;;;;;7.60;101031.00;;;;10487982;28;20209;-78
2021/11/21 01:12:13;;;;;;;34.73;18.40;;;;;7.60;101028.00;;;;10508205;28;20219;-77
2021/11/21 01:17:15;;;;;;;36.77;19.13;;;;;7.60;101031.00;;;;10534521;28;20655;-77
2021/11/21 01:22:17;;;;;;;37.80;19.20;;;;;7.60;101027.00;;;;10541543;28;20196;-78
2021/11/21 01:27:19;;;;;;;37.50;19.47;;;;;7.60;101037.00;;;;10511598;28;20189;-77
2021/11/21 01:32:22;;;;;;;37.77;19.03;;;;;7.60;101032.00;;;;10523361;28;20207;-77
2021/11/21 01:37:24;;;;;;;38.10;18.33;;;;;7.60;101019.00;;;;10502537;28;20219;-77
2021/11/21 01:42:26;;;;;;;36.40;18.70;;;;;7.60;101008.00;;;;10488451;28;20246;-77
2021/11/21 01:47:28;;;;;;;38.83;19.17;;;;;7.60;101019.00;;;;10506834;28;20271;-77
2021/11/21 01:52:30;;;;;;;32.77;16.60;;;;;7.60;100997.00;;;;10506547;28;20192;-78
2021/11/21 01:57:32;;;;;;;31.97;16.07;;;;;7.60;100987.00;;;;10522582;28;20254;-77
2021/11/21 02:02:34;;;;;;;31.63;15.70;;;;;7.50;100982.00;;;;10490000;28;20209;-77
2021/11/21 02:07:37;;;;;;;29.80;14.80;;;;;7.50;100985.00;;;;10506661;28;20200;-78
2021/11/21 02:12:40;;;;;;;25.73;14.13;;;;;7.60;100975.00;;;;10538122;28;20726;-77
2021/11/21 02:17:42;;;;;;;30.97;15.50;;;;;7.60;100982.00;;;;10503442;28;20196;-77
2021/11/21 02:22:44;;;;;;;30.07;15.10;;;;;7.60;100992.00;;;;10505329;28;20239;-77
2021/11/21 02:27:46;;;;;;;31.73;15.87;;;;;7.60;100977.00;;;;10508058;28;20622;-77
2021/11/21 02:32:51;;;;;;;32.47;17.43;;;;;7.60;100972.00;;;;10471862;28;20584;-77
2021/11/21 02:37:53;;;;;;;29.47;16.57;;;;;7.60;100960.00;;;;10487115;28;20201;-79
2021/11/21 02:42:56;;;;;;;30.10;16.37;;;;;7.60;100961.00;;;;10504492;28;20209;-78
2021/11/21 02:47:58;;;;;;;29.77;16.27;;;;;7.60;100943.00;;;;10471029;28;20188;-78
2021/11/21 02:53:03;;;;;;;29.83;16.03;;;;;7.60;100946.00;;;;10489784;28;20189;-78
2021/11/21 02:58:05;;;;;;;28.50;15.30;;;;;7.60;100930.00;;;;10483963;28;20200;-78
2021/11/21 03:03:07;;;;;;;31.47;15.13;;;;;7.50;100914.00;;;;10494553;28;20209;-78
2021/11/21 03:08:10;;;;;;;32.43;15.70;;;;;7.50;100931.00;;;;10503122;28;20193;-78
2021/11/21 03:13:12;;;;;;;32.33;15.93;;;;;7.50;100925.00;;;;10462924;28;20197;-77
2021/11/21 03:18:14;;;;;;;37.60;17.93;;;;;7.60;100928.00;;;;10466417;28;20200;-77
2021/11/21 03:23:16;;;;;;;36.70;16.87;;;;;7.60;100913.00;;;;10486259;28;20671;-78
2021/11/21 03:28:18;;;;;;;34.87;17.43;;;;;7.60;100901.00;;;;10488486;28;20204;-78
2021/11/21 03:33:20;;;;;;;35.30;16.50;;;;;7.60;100907.00;;;;10471798;28;20580;-78
2021/11/21 03:38:23;;;;;;;34.50;18.83;;;;;7.50;100902.00;;;;10487323;28;20236;-78
2021/11/21 03:43:25;;;;;;;36.13;19.60;;;;;7.50;100891.00;;;;10502090;28;20208;-78
2021/11/21 03:48:26;;;;;;;37.60;18.97;;;;;7.60;100892.00;;;;10488238;28;20250;-77
2021/11/21 03:53:28;;;;;;;41.13;20.33;;;;;7.60;100883.00;;;;10455691;28;20610;-78
2021/11/21 03:58:30;;;;;;;45.00;21.10;;;;;7.60;100878.00;;;;10485390;28;20185;-77
2021/11/21 04:03:33;;;;;;;39.50;19.13;;;;;7.60;100878.00;;;;10454976;28;20209;-77
2021/11/21 04:08:35;;;;;;;39.77;18.53;;;;;7.60;100876.00;;;;10485395;28;20197;-77
2021/11/21 04:13:37;;;;;;;45.40;19.63;;;;;7.60;100854.00;;;;10488061;28;20547;-77
2021/11/21 04:18:39;;;;;;;42.40;20.47;;;;;7.60;100855.00;;;;10477180;28;20656;-77
2021/11/21 04:23:41;;;;;;;44.40;20.33;;;;;7.60;100858.00;;;;10493167;28;20211;-77
2021/11/21 04:28:43;;;;;;;40.37;18.70;;;;;7.60;100850.00;;;;10474930;28;20207;-78
2021/11/21 04:33:45;;;;;;;40.20;18.57;;;;;7.60;100835.00;;;;10473620;28;20278;-77
2021/11/21 04:38:48;;;;;;;41.63;18.90;;;;;7.60;100834.00;;;;10493055;28;20201;-77
2021/11/21 04:43:50;;;;;;;39.30;18.53;;;;;7.70;100837.00;;;;10509703;28;20676;-77
2021/11/21 04:48:51;;;;;;;43.73;19.23;;;;;7.70;100826.00;;;;10502700;28;20183;-77
2021/11/21 04:53:53;;;;;;;40.27;19.37;;;;;7.70;100827.00;;;;10492856;28;20196;-77
2021/11/21 04:58:56;;;;;;;42.07;20.27;;;;;7.70;100822.00;;;;10509038;28;20205;-77
2021/11/21 05:03:58;;;;;;;41.63;18.83;;;;;7.70;100825.00;;;;10469370;28;20213;-77
2021/11/21 05:09:01;;;;;;;43.57;18.73;;;;;7.70;100816.00;;;;10507542;28;20199;-77
2021/11/21 05:14:04;;;;;;;42.90;20.13;;;;;7.70;100812.00;;;;10464742;28;20197;-77
2021/11/21 05:19:06;;;;;;;47.33;19.57;;;;;7.70;100802.00;;;;10479035;28;20651;-77
2021/11/21 05:24:08;;;;;;;50.53;20.90;;;;;7.70;100798.00;;;;10506710;28;20734;-78
2021/11/21 05:29:10;;;;;;;47.83;20.00;;;;;7.70;100789.00;;;;10490718;28;20243;-78
2021/11/21 05:34:12;;;;;;;49.47;21.03;;;;;7.70;100790.00;;;;10490496;28;20699;-78
2021/11/21 05:39:16;;;;;;;43.10;21.07;;;;;7.70;100788.00;;;;10482041;28;20248;-78
2021/11/21 05:44:18;;;;;;;41.93;20.07;;;;;7.70;100786.00;;;;10495197;28;20233;-78
2021/11/21 05:49:20;;;;;;;46.67;20.93;;;;;7.60;100791.00;;;;10489730;28;20197;-79
2021/11/21 05:54:22;;;;;;;47.23;19.70;;;;;7.60;100777.00;;;;10506040;28;20571;-79
2021/11/21 05:59:24;;;;;;;47.10;20.57;;;;;7.60;100773.00;;;;10489625;28;20225;-79
2021/11/21 06:04:26;;;;;;;51.50;21.13;;;;;7.60;100764.00;;;;10472388;28;20209;-78
2021/11/21 06:09:28;;;;;;;42.90;19.73;;;;;7.60;100759.00;;;;10488536;28;20242;-78
2021/11/21 06:14:31;;;;;;;45.20;20.63;;;;;7.60;100760.00;;;;10488320;28;20892;-79
2021/11/21 06:19:35;;;;;;;44.30;20.77;;;;;7.70;100757.00;;;;10474544;28;20197;-78
2021/11/21 06:24:37;;;;;;;47.67;19.00;;;;;7.60;100749.00;;;;10521223;28;20246;-79
2021/11/21 06:29:39;;;;;;;43.63;19.30;;;;;7.70;100757.00;;;;10474121;28;20255;-79
2021/11/21 06:34:42;;;;;;;45.57;19.43;;;;;7.70;100745.00;;;;10456305;28;20266;-78
2021/11/21 06:39:43;;;;;;;41.03;18.90;;;;;7.70;100754.00;;;;10460296;28;20262;-79
2021/11/21 06:44:46;;;;;;;41.87;17.57;;;;;7.70;100737.00;;;;10486302;28;20618;-79
2021/11/21 06:49:48;;;;;;;40.53;18.40;;;;;7.70;100735.00;;;;10475398;28;20660;-78
2021/11/21 06:54:50;;;;;;;46.60;19.80;;;;;7.70;100743.00;;;;10504371;28;20185;-78
2021/11/21 06:59:52;;;;;;;45.23;20.30;;;;;7.70;100746.00;;;;10487468;28;20200;-78
2021/11/21 07:04:54;;;;;;;54.30;21.50;;;;;7.70;100754.00;;;;10487095;28;20734;-79
2021/11/21 07:09:56;;;;;;;45.60;18.60;;;;;7.80;100756.00;;;;10480473;28;20194;-78
2021/11/21 07:14:58;;;;;;;47.03;20.57;;;;;7.80;100765.00;;;;10515851;28;20193;-79
2021/11/21 07:20:03;;;;;;;48.80;20.73;;;;;7.80;100762.00;;;;10503333;28;20232;-79
2021/11/21 07:25:05;;;;;;;52.23;22.40;;;;;7.80;100770.00;;;;10503177;28;20205;-79
2021/11/21 07:30:07;;;;;;;45.13;18.67;;;;;7.80;100775.00;;;;10479707;28;20203;-80
2021/11/21 07:35:11;;;;;;;39.67;16.67;;;;;7.80;100786.00;;;;10510887;28;20242;-79
2021/11/21 07:40:15;;;;;;;43.80;18.90;;;;;7.80;100784.00;;;;10494108;28;20205;-79
2021/11/21 07:45:17;;;;;;;36.43;17.40;;;;;7.90;100805.00;;;;10485910;28;20209;-79
2021/11/21 07:50:20;;;;;;;36.67;16.10;;;;;7.90;100794.00;;;;10501943;28;20189;-79
2021/11/21 07:55:25;;;;;;;23.87;12.20;;;;;8.00;100796.00;;;;10485945;28;20234;-78
2021/11/21 08:00:27;;;;;;;24.90;12.03;;;;;8.10;100796.00;;;;10477521;28;20201;-79
2021/11/21 08:05:29;;;;;;;22.93;12.07;;;;;8.20;100793.00;;;;10475214;28;20220;-79
2021/11/21 08:10:31;;;;;;;30.27;14.17;;;;;8.40;100795.00;;;;10483283;28;20597;-78
2021/11/21 08:15:33;;;;;;;25.87;14.10;;;;;8.60;100788.00;;;;10483536;28;20203;-78
2021/11/21 08:20:36;;;;;;;32.17;14.10;;;;;8.80;100795.00;;;;10482511;28;20224;-78
2021/11/21 08:25:38;;;;;;;27.93;14.37;;;;;9.10;100795.00;;;;10495262;28;20209;-79
2021/11/21 08:30:40;;;;;;;26.17;13.53;;;;;9.30;100790.00;;;;10462418;28;20220;-78
2021/11/21 08:35:42;;;;;;;26.00;14.13;;;;;9.30;100796.00;;;;10483993;28;20220;-78
2021/11/21 08:40:44;;;;;;;27.17;14.10;;;;;9.30;100780.00;;;;10474367;28;20212;-78
2021/11/21 08:45:46;;;;;;;27.37;14.80;;;;;9.30;100781.00;;;;10457949;28;20299;-78
2021/11/21 08:50:48;;;;;;;23.73;12.47;;;;;9.30;100786.00;;;;10474986;28;20188;-80
2021/11/21 08:55:50;;;;;;;20.90;12.30;;;;;9.20;100794.00;;;;10490976;28;20679;-78
2021/11/21 09:00:53;;;;;;;19.23;11.23;;;;;9.20;100797.00;;;;10491357;28;20201;-77
2021/11/21 09:05:56;;;;;;;18.87;10.90;;;;;9.10;100791.00;;;;10491799;28;20217;-78
2021/11/21 09:10:58;;;;;;;22.87;11.27;;;;;9.10;100807.00;;;;10472987;28;20870;-78
2021/11/21 09:16:04;;;;;;;19.00;10.17;;;;;9.00;100809.00;;;;10474847;28;20193;-78
2021/11/21 09:21:06;;;;;;;26.50;12.40;;;;;9.00;100819.00;;;;10495774;28;20235;-78
2021/11/21 09:26:08;;;;;;;17.87;10.07;;;;;8.90;100835.00;;;;10510277;28;20250;-79
2021/11/21 09:31:10;;;;;;;8.33;4.63;;;;;8.70;100855.00;;;;10468292;28;20221;-78
2021/11/21 09:36:12;;;;;;;7.63;3.67;;;;;8.60;100857.00;;;;10466152;28;20603;-78
2021/11/21 09:41:15;;;;;;;10.50;4.33;;;;;8.40;100866.00;;;;10471474;28;20197;-79
2021/11/21 09:46:18;;;;;;;9.77;4.50;;;;;8.40;100873.00;;;;10471854;28;20217;-78
2021/11/21 09:51:21;;;;;;;9.57;4.63;;;;;8.60;100862.00;;;;10463787;28;20258;-78
2021/11/21 09:56:23;;;;;;;9.37;4.87;;;;;8.70;100856.00;;;;10481976;28;20656;-78
2021/11/21 10:01:45;;;;;;;13.57;5.40;;;;;8.90;100856.00;;;;10486935;28;20225;-78
2021/11/21 10:06:49;;;;;;;12.73;5.60;;;;;9.00;100854.00;;;;10501834;28;20212;-78
2021/11/21 10:12:07;;;;;;;11.40;6.00;;;;;9.00;100862.00;;;;10468257;28;20204;-78
2021/11/21 10:17:21;;;;;;;12.63;5.23;;;;;9.00;100862.00;;;;10468967;28;20220;-78
2021/11/21 10:22:43;;;;;;;11.83;5.60;;;;;9.10;100866.00;;;;10486346;28;20228;-78
2021/11/21 10:27:45;;;;;;;10.67;4.20;;;;;9.20;100874.00;;;;10460595;28;20212;-78
2021/11/21 10:32:51;;;;;;;9.27;3.87;;;;;9.40;100865.00;;;;10451962;28;20267;-78
2021/11/21 10:37:59;;;;;;;10.40;4.10;;;;;9.70;100861.00;;;;10485417;28;20199;-78
2021/11/21 10:43:02;;;;;;;10.63;4.10;;;;;10.00;100868.00;;;;10479750;28;20208;-78
2021/11/21 10:48:04;;;;;;;12.50;4.57;;;;;10.20;100879.00;;;;10465769;28;20221;-78
2021/11/21 10:53:08;;;;;;;5.90;3.13;;;;;10.20;100881.00;;;;10460899;28;20580;-78
2021/11/21 10:58:11;;;;;;;7.87;3.10;;;;;10.20;100878.00;;;;10478197;28;20192;-78
2021/11/21 11:03:21;;;;;;;13.17;3.53;;;;;10.20;100880.00;;;;10500201;28;20201;-77
2021/11/21 11:08:27;;;;;;;6.87;3.23;;;;;10.10;100879.00;;;;10512301;28;20775;-77
2021/11/21 11:13:30;;;;;;;11.20;3.37;;;;;10.10;100880.00;;;;10495190;28;20190;-78
2021/11/21 11:18:32;;;;;;;8.53;3.20;;;;;10.10;100882.00;;;;10469113;28;20181;-77
2021/11/21 11:23:34;;;;;;;8.37;3.20;;;;;9.90;100884.00;;;;10476918;28;20201;-77
2021/11/21 11:28:47;;;;;;;12.03;3.70;;;;;9.90;100876.00;;;;10460014;28;20205;-77
2021/11/21 11:33:52;;;;;;;8.77;3.93;;;;;9.90;100869.00;;;;10497070;28;20213;-78
2021/11/21 11:39:08;;;;;;;12.47;3.80;;;;;9.80;100870.00;;;;10491435;28;20226;-77
2021/11/21 11:44:55;;;;;;;12.50;3.80;;;;;9.70;100862.00;;;;10501012;28;20212;-77
2021/11/21 11:49:58;;;;;;;14.80;4.73;;;;;9.70;100858.00;;;;10480713;28;20196;-78
2021/11/21 11:55:08;;;;;;;11.23;4.10;;;;;9.80;100853.00;;;;10482137;28;20226;-78
2021/11/21 12:00:33;;;;;;;11.77;4.37;;;;;10.10;100847.00;;;;10499264;28;20198;-78
2021/11/21 12:05:36;;;;;;;12.40;2.47;;;;;10.10;100862.00;;;;10466322;28;20201;-78
2021/11/21 12:10:52;;;;;;;7.03;3.33;;;;;10.20;100863.00;;;;10488423;28;20305;-78
2021/11/21 12:15:59;;;;;;;12.50;2.73;;;;;10.40;100860.00;;;;10481139;28;20283;-78
2021/11/21 12:21:02;;;;;;;7.87;3.40;;;;;10.60;100858.00;;;;10484565;28;20284;-77
2021/11/21 12:26:28;;;;;;;8.63;3.03;;;;;10.40;100874.00;;;;10492468;28;20245;-78
2021/11/21 12:31:38;;;;;;;8.47;3.30;;;;;10.20;100853.00;;;;10498178;28;20271;-79
2021/11/21 12:37:09;;;;;;;7.87;2.70;;;;;10.20;100857.00;;;;10479522;28;20193;-78
2021/11/21 12:42:16;;;;;;;7.67;3.00;;;;;10.30;100844.00;;;;10456899;28;20686;-78
2021/11/21 12:47:18;;;;;;;9.13;2.80;;;;;10.30;100849.00;;;;10485902;28;20248;-78
2021/11/21 12:52:24;;;;;;;10.77;2.60;;;;;10.30;100849.00;;;;10496795;28;20220;-78
2021/11/21 12:57:26;;;;;;;5.70;2.63;;;;;10.20;100832.00;;;;10482744;28;20262;-78
2021/11/21 13:02:29;;;;;;;12.10;3.47;;;;;10.30;100830.00;;;;10471906;28;20208;-78
2021/11/21 13:07:43;;;;;;;5.83;2.83;;;;;10.40;100827.00;;;;10469976;28;20205;-78
2021/11/21 13:12:48;;;;;;;10.67;4.40;;;;;10.40;100826.00;;;;10464875;28;20224;-78
2021/11/21 13:18:05;;;;;;;7.30;4.20;;;;;10.40;100820.00;;;;10487667;28;20188;-77
2021/11/21 13:23:11;;;;;;;9.80;4.10;;;;;10.30;100814.00;;;;10487646;28;20234;-77
2021/11/21 13:28:33;;;;;;;10.93;3.90;;;;;10.30;100811.00;;;;10471940;28;20231;-77
2021/11/21 13:33:43;;;;;;;9.30;3.43;;;;;10.20;100806.00;;;;10487186;28;20220;-77
2021/11/21 13:38:47;;;;;;;9.53;3.90;;;;;10.00;100804.00;;;;10485101;28;20198;-77
2021/11/21 13:44:01;;;;;;;8.97;3.17;;;;;9.90;100800.00;;;;10483879;28;20201;-77
2021/11/21 13:49:25;;;;;;;12.63;4.03;;;;;9.90;100799.00;;;;10475230;28;20307;-77
2021/11/21 13:54:28;;;;;;;9.67;3.47;;;;;9.80;100807.00;;;;10479780;28;20208;-77
2021/11/21 13:59:42;;;;;;;11.73;3.70;;;;;9.80;100805.00;;;;10462999;28;20201;-77
2021/11/21 14:04:45;;;;;;;11.17;4.20;;;;;9.70;100807.00;;;;10500796;28;20209;-77
2021/11/21 14:10:08;;;;;;;14.43;4.93;;;;;9.60;100802.00;;;;10507900;28;20224;-76
2021/11/21 14:15:19;;;;;;;14.90;5.03;;;;;9.50;100803.00;;;;10447072;28;20186;-77
2021/11/21 14:20:30;;;;;;;10.77;4.90;;;;;9.40;100788.00;;;;10485188;28;20678;-76
2021/11/21 14:25:40;;;;;;;10.73;4.87;;;;;9.30;100800.00;;;;10457114;28;20200;-77
2021/11/21 14:30:48;;;;;;;16.03;4.77;;;;;9.20;100797.00;;;;10463325;28;20224;-76
2021/11/21 14:35:53;;;;;;;12.23;4.70;;;;;9.20;100814.00;;;;10502560;28;20192;-76
2021/11/21 14:41:01;;;;;;;10.67;5.27;;;;;9.20;100823.00;;;;10481643;28;20208;-77
2021/11/21 14:46:03;;;;;;;13.67;5.57;;;;;9.10;100822.00;;;;10504201;28;20907;-77
2021/11/21 14:51:08;;;;;;;10.10;5.07;;;;;9.10;100818.00;;;;10468666;28;20283;-77
2021/11/21 14:56:15;;;;;;;12.47;5.20;;;;;9.00;100849.00;;;;10492388;28;20196;-77
2021/11/21 15:01:21;;;;;;;5.53;1.40;;;;;8.50;100895.00;;;;10476906;28;20529;-78
2021/11/21 15:06:24;;;;;;;4.30;1.57;;;;;7.90;100915.00;;;;10503056;28;20212;-79
2021/11/21 15:11:28;;;;;;;4.83;1.20;;;;;7.70;100901.00;;;;10535200;28;20862;-78
2021/11/21 15:16:30;;;;;;;5.10;1.47;;;;;7.50;100889.00;;;;10470791;28;20181;-78
2021/11/21 15:21:32;;;;;;;5.40;1.17;;;;;7.50;100888.00;;;;10466548;28;20197;-78
2021/11/21 15:26:34;;;;;;;7.17;1.17;;;;;7.50;100878.00;;;;10462797;28;20201;-78
2021/11/21 15:31:37;;;;;;;4.73;1.37;;;;;7.40;100865.00;;;;10513949;28;20212;-78
2021/11/21 15:36:40;;;;;;;5.90;1.97;;;;;7.20;100868.00;;;;10497809;28;20243;-78
2021/11/21 15:41:42;;;;;;;16.77;6.70;;;;;6.90;100864.00;;;;10496139;28;20208;-77
2021/11/21 15:46:44;;;;;;;14.83;5.60;;;;;6.80;100870.00;;;;10515694;28;20213;-77
2021/11/21 15:51:46;;;;;;;11.47;5.07;;;;;6.70;100865.00;;;;10514990;28;20659;-77
2021/11/21 15:56:48;;;;;;;8.53;3.53;;;;;6.60;100865.00;;;;10505055;28;20188;-78
2021/11/21 16:01:50;;;;;;;8.17;2.80;;;;;6.40;100874.00;;;;10512699;28;20188;-77
2021/11/21 16:06:52;;;;;;;7.40;2.90;;;;;6.20;100890.00;;;;10465969;28;20192;-77
2021/11/21 16:11:55;;;;;;;10.40;3.57;;;;;6.00;100889.00;;;;10479303;28;20189;-78
2021/11/21 16:17:13;;;;;;;10.83;4.27;;;;;5.90;100901.00;;;;10458747;28;20290;-77
2021/11/21 16:22:15;;;;;;;14.70;5.27;;;;;5.70;100903.00;;;;10509674;28;20197;-77
2021/11/21 16:27:17;;;;;;;10.60;5.37;;;;;5.60;100908.00;;;;10492150;28;20221;-77
2021/11/21 16:32:20;;;;;;;14.10;5.77;;;;;5.60;100917.00;;;;10492063;28;20250;-77
2021/11/21 16:37:21;;;;;;;20.10;6.53;;;;;5.50;100916.00;;;;10502889;28;20663;-77
2021/11/21 16:42:23;;;;;;;14.77;7.37;;;;;5.50;100925.00;;;;10488502;28;20193;-79
2021/11/21 16:47:25;;;;;;;14.20;7.57;;;;;5.50;100938.00;;;;10519115;28;20212;-77
2021/11/21 16:52:28;;;;;;;13.57;7.47;;;;;5.40;100946.00;;;;10466856;28;20193;-78
2021/11/21 16:57:30;;;;;;;13.30;7.87;;;;;5.30;100960.00;;;;10494025;28;20663;-77
2021/11/21 17:02:32;;;;;;;15.70;9.30;;;;;5.40;100961.00;;;;10472789;28;20204;-77
2021/11/21 17:07:34;;;;;;;16.33;10.13;;;;;5.40;100966.00;;;;10475279;28;20205;-78
2021/11/21 17:12:36;;;;;;;14.00;7.33;;;;;5.40;100980.00;;;;10532639;28;20291;-77
2021/11/21 17:17:38;;;;;;;13.53;6.60;;;;;5.60;100983.00;;;;10496297;28;20185;-78
2021/11/21 17:22:40;;;;;;;10.83;5.83;;;;;5.70;101004.00;;;;10505693;28;20201;-77
2021/11/21 17:27:42;;;;;;;10.63;5.43;;;;;5.60;100999.00;;;;10508155;28;20307;-77
2021/11/21 17:32:45;;;;;;;12.73;5.70;;;;;5.60;101014.00;;;;10489773;28;20805;-77
2021/11/21 17:37:48;;;;;;;9.43;6.17;;;;;5.60;101025.00;;;;10509157;28;20201;-78
2021/11/21 17:42:50;;;;;;;13.63;6.63;;;;;5.50;101030.00;;;;10497671;28;20690;-78
2021/11/21 17:47:52;;;;;;;16.57;6.70;;;;;5.50;101040.00;;;;10480490;28;20213;-78
2021/11/21 17:52:54;;;;;;;12.27;6.77;;;;;5.40;101043.00;;;;10452263;28;20247;-78
2021/11/21 17:57:56;;;;;;;11.37;6.43;;;;;5.20;101046.00;;;;10476896;28;20326;-78
2021/11/21 18:02:58;;;;;;;11.33;7.27;;;;;5.10;101045.00;;;;10490348;28;20193;-78
2021/11/21 18:08:01;;;;;;;17.13;7.43;;;;;5.00;101051.00;;;;10486256;28;21029;-79
2021/11/21 18:13:03;;;;;;;11.57;6.90;;;;;4.90;101046.00;;;;10490998;28;20279;-78
2021/11/21 18:18:05;;;;;;;15.47;7.73;;;;;4.70;101064.00;;;;10475137;28;20213;-78
2021/11/21 18:23:07;;;;;;;11.27;7.27;;;;;4.60;101065.00;;;;10516621;28;20648;-78
2021/11/21 18:28:10;;;;;;;10.67;7.27;;;;;4.60;101061.00;;;;10524297;28;20269;-78
2021/11/21 18:33:12;;;;;;;12.60;8.23;;;;;4.50;101079.00;;;;10474089;28;20223;-78
2021/11/21 18:38:14;;;;;;;9.70;7.57;;;;;4.50;101084.00;;;;10485767;28;20264;-78
2021/11/21 18:43:17;;;;;;;12.07;7.90;;;;;4.50;101091.00;;;;10465447;28;20569;-78
2021/11/21 18:48:20;;;;;;;15.13;9.23;;;;;4.40;101094.00;;;;10484473;28;20204;-78
2021/11/21 18:53:23;;;;;;;14.67;8.50;;;;;4.40;101103.00;;;;10498692;28;20192;-78
2021/11/21 18:58:26;;;;;;;18.40;9.60;;;;;4.40;101107.00;;;;10489974;28;20185;-78
2021/11/21 19:03:28;;;;;;;14.73;9.37;;;;;4.40;101111.00;;;;10503102;28;20250;-78
2021/11/21 19:08:29;;;;;;;14.93;9.57;;;;;4.30;101118.00;;;;10530891;28;20254;-79
2021/11/21 19:13:31;;;;;;;14.47;9.90;;;;;4.30;101123.00;;;;10480754;28;20198;-78
2021/11/21 19:18:36;;;;;;;18.63;11.70;;;;;4.20;101130.00;;;;10476649;28;20193;-78
2021/11/21 19:23:38;;;;;;;18.87;11.53;;;;;4.10;101135.00;;;;10489030;28;20220;-78
2021/11/21 19:28:40;;;;;;;19.90;10.67;;;;;4.10;101147.00;;;;10488170;28;20234;-79
2021/11/21 19:33:44;;;;;;;19.60;11.83;;;;;4.10;101150.00;;;;10481757;28;20209;-78
2021/11/21 19:38:50;;;;;;;24.40;10.23;;;;;4.00;101152.00;;;;10488867;28;20189;-78
2021/11/21 19:43:52;;;;;;;21.13;10.37;;;;;3.90;101159.00;;;;10504522;28;20196;-78
2021/11/21 19:48:54;;;;;;;24.73;11.53;;;;;3.90;101154.00;;;;10504824;28;20243;-78
2021/11/21 19:53:56;;;;;;;20.40;11.60;;;;;4.00;101164.00;;;;10488219;28;20204;-78
2021/11/21 19:59:00;;;;;;;20.80;10.77;;;;;4.00;101176.00;;;;10504740;28;20656;-78
2021/11/21 20:04:03;;;;;;;21.97;11.47;;;;;3.90;101180.00;;;;10446832;28;20198;-78
2021/11/21 20:09:05;;;;;;;20.83;11.17;;;;;4.00;101192.00;;;;10479052;28;20215;-78
2021/11/21 20:14:08;;;;;;;26.27;10.73;;;;;3.90;101196.00;;;;10489016;28;20218;-78
2021/11/21 20:19:10;;;;;;;16.57;9.97;;;;;3.80;101194.00;;;;10488479;28;20214;-78
2021/11/21 20:24:12;;;;;;;26.23;11.43;;;;;3.80;101200.00;;;;10511359;28;20241;-78
2021/11/21 20:29:18;;;;;;;15.83;10.03;;;;;3.80;101218.00;;;;10483171;28;20209;-78
2021/11/21 20:34:35;;;;;;;22.93;10.17;;;;;3.80;101222.00;;;;10499391;28;20223;-78
2021/11/21 20:39:38;;;;;;;21.13;9.73;;;;;3.90;101226.00;;;;10478647;28;20197;-78
2021/11/21 20:44:41;;;;;;;22.50;10.57;;;;;4.00;101239.00;;;;10470256;28;20193;-78
2021/11/21 20:49:43;;;;;;;18.77;10.40;;;;;4.00;101238.00;;;;10480112;28;20564;-78
2021/11/21 20:54:45;;;;;;;19.53;9.57;;;;;4.00;101236.00;;;;10449359;28;20243;-78
2021/11/21 20:59:48;;;;;;;14.90;9.07;;;;;4.00;101249.00;;;;10509621;28;20189;-78
2021/11/21 21:04:50;;;;;;;18.87;8.07;;;;;4.10;101249.00;;;;10491970;28;20263;-78
2021/11/21 21:09:52;;;;;;;21.30;8.23;;;;;4.00;101256.00;;;;10493933;28;20254;-79
2021/11/21 21:14:54;;;;;;;16.83;7.47;;;;;4.00;101257.00;;;;10493980;28;20551;-78
2021/11/21 21:19:56;;;;;;;16.83;7.47;;;;;4.00;101255.00;;;;10501945;28;20197;-78
2021/11/21 21:24:58;;;;;;;19.97;6.47;;;;;4.00;101261.00;;;;10496522;28;20193;-79
2021/11/21 21:30:08;;;;;;;23.27;7.83;;;;;4.10;101260.00;;;;10511608;28;20351;-78
2021/11/21 21:35:11;;;;;;;19.33;7.80;;;;;4.10;101260.00;;;;10489646;28;20614;-78
2021/11/21 21:40:13;;;;;;;19.60;6.63;;;;;4.10;101267.00;;;;10496441;28;20682;-78
2021/11/21 21:45:15;;;;;;;19.33;7.03;;;;;4.00;101275.00;;;;10525386;28;20219;-78
2021/11/21 21:50:35;;;;;;;18.13;7.23;;;;;4.00;101276.00;;;;10490986;28;20185;-78
2021/11/21 21:55:39;;;;;;;16.07;6.53;;;;;4.00;101278.00;;;;10492671;28;20193;-79
2021/11/21 22:00:41;;;;;;;17.47;7.03;;;;;4.00;101282.00;;;;10524216;28;20238;-78
2021/11/21 22:05:44;;;;;;;15.03;5.97;;;;;4.00;101284.00;;;;10481310;28;20250;-78
2021/11/21 22:10:46;;;;;;;14.37;6.20;;;;;3.90;101283.00;;;;10484800;28;20193;-78
2021/11/21 22:15:49;;;;;;;19.77;6.73;;;;;3.90;101282.00;;;;10469119;28;20193;-78
2021/11/21 22:20:51;;;;;;;17.17;5.87;;;;;3.90;101290.00;;;;10510068;28;20200;-78
2021/11/21 22:25:53;;;;;;;22.17;7.47;;;;;3.90;101302.00;;;;10474375;28;20208;-78
2021/11/21 22:30:55;;;;;;;21.70;6.37;;;;;3.90;101306.00;;;;10476192;28;20272;-78
2021/11/21 22:36:00;;;;;;;18.13;6.13;;;;;3.80;101308.00;;;;10479602;28;20195;-79
2021/11/21 22:41:04;;;;;;;25.90;7.23;;;;;3.80;101308.00;;;;10458656;28;20205;-79
2021/11/21 22:46:07;;;;;;;17.37;7.13;;;;;3.80;101326.00;;;;10466996;28;20262;-78
2021/11/21 22:51:09;;;;;;;28.33;7.83;;;;;3.70;101319.00;;;;10494981;28;20202;-78
2021/11/21 22:56:11;;;;;;;22.67;7.50;;;;;3.70;101331.00;;;;10522300;28;20624;-78
2021/11/21 23:01:13;;;;;;;22.33;7.03;;;;;3.60;101339.00;;;;10488817;28;20192;-78
2021/11/21 23:06:15;;;;;;;19.60;6.90;;;;;3.50;101338.00;;;;10521675;28;20528;-78
2021/11/21 23:11:17;;;;;;;15.43;7.27;;;;;3.60;101343.00;;;;10510631;28;20197;-78
2021/11/21 23:16:19;;;;;;;19.03;6.10;;;;;3.60;101338.00;;;;10498043;28;20737;-78
2021/11/21 23:21:21;;;;;;;23.97;6.43;;;;;3.60;101355.00;;;;10487205;28;20277;-78
2021/11/21 23:26:23;;;;;;;16.70;5.57;;;;;3.60;101357.00;;;;10488312;28;20225;-78
2021/11/21 23:31:25;;;;;;;26.17;6.70;;;;;3.60;101361.00;;;;10488779;28;20275;-78
2021/11/21 23:36:27;;;;;;;17.67;5.17;;;;;3.60;101370.00;;;;10459611;28;20193;-78
2021/11/21 23:41:29;;;;;;;23.60;5.27;;;;;3.70;101377.00;;;;10474206;28;20262;-78
2021/11/21 23:46:33;;;;;;;15.07;5.17;;;;;3.70;101378.00;;;;10489312;28;20209;-78
2021/11/21 23:51:36;;;;;;;18.07;6.40;;;;;3.80;101392.00;;;;10460141;28;20243;-78
2021/11/21 23:56:38;;;;;;;16.13;5.17;;;;;3.90;101388.00;;;;10480091;28;20194;-78
